Time;durP1;ratioP1;P1;durP2;ratioP2;P2;SDS_P1;SDS_P2;PMS_P1;PMS_P2;Temp;Humidity;BMP_temperature;BMP_pressure;BME280_temperature;BME280_humidity;BME280_pressure;Samples;Min_cycle;Max_cycle;Signal;HPM_P1;HPM_P2
2023/08/30 00:02:50;;;;;;;2.47;1.47;;;13.90;99.90;;;;;;8308703;28;20200;-66
2023/08/30 00:06:51;;;;;;;1.93;1.20;;;13.80;99.90;;;;;;8306976;28;20255;-64
2023/08/30 00:10:52;;;;;;;4.20;1.30;;;13.80;99.90;;;;;;8322585;28;20210;-66
2023/08/30 00:14:53;;;;;;;1.60;1.27;;;13.80;99.90;;;;;;8306474;28;20277;-66
2023/08/30 00:18:53;;;;;;;1.70;1.20;;;13.80;99.90;;;;;;8319274;28;20194;-66
2023/08/30 00:22:54;;;;;;;1.77;1.50;;;13.70;99.90;;;;;;8321536;28;20194;-68
2023/08/30 00:26:55;;;;;;;1.30;1.20;;;13.70;99.90;;;;;;8305313;28;20205;-66
2023/08/30 00:30:56;;;;;;;1.77;1.40;;;13.70;99.90;;;;;;8305716;28;20186;-64
2023/08/30 00:34:56;;;;;;;2.17;1.20;;;13.70;99.90;;;;;;8306741;28;20277;-66
2023/08/30 00:38:57;;;;;;;1.47;1.10;;;13.60;99.90;;;;;;8320322;28;20185;-67
2023/08/30 00:42:58;;;;;;;5.67;1.33;;;13.60;99.90;;;;;;8308517;28;20197;-66
2023/08/30 00:47:01;;;;;;;1.30;1.20;;;13.60;99.90;;;;;;8312108;28;20209;-65
2023/08/30 00:51:02;;;;;;;1.20;1.10;;;13.60;99.90;;;;;;8319859;28;20472;-67
2023/08/30 00:55:03;;;;;;;2.10;1.03;;;13.60;99.90;;;;;;8304213;28;20189;-68
2023/08/30 00:59:03;;;;;;;2.40;1.03;;;13.70;99.90;;;;;;8321737;28;20197;-65
2023/08/30 01:03:07;;;;;;;1.87;1.50;;;13.70;99.90;;;;;;8314916;28;20217;-68
2023/08/30 01:07:08;;;;;;;1.70;1.60;;;13.70;99.90;;;;;;8323187;28;20210;-67
2023/08/30 01:11:24;;;;;;;3.07;1.80;;;13.80;99.90;;;;;;8311148;28;20267;-68
2023/08/30 01:15:26;;;;;;;3.10;1.50;;;13.80;99.90;;;;;;8332448;28;20252;-68
2023/08/30 01:19:29;;;;;;;2.70;2.50;;;13.80;99.90;;;;;;8329142;28;20220;-70
2023/08/30 01:23:56;;;;;;;4.00;2.93;;;13.70;99.90;;;;;;8330327;28;20388;-68
2023/08/30 01:27:58;;;;;;;3.10;2.80;;;13.70;99.90;;;;;;8311437;28;20217;-66
2023/08/30 01:32:01;;;;;;;3.10;2.80;;;13.70;99.90;;;;;;8309389;28;20187;-67
2023/08/30 01:36:04;;;;;;;3.13;2.83;;;13.70;99.90;;;;;;8323342;28;20269;-68
2023/08/30 01:40:07;;;;;;;3.67;3.13;;;13.70;99.90;;;;;;8315993;28;20190;-70
2023/08/30 01:44:09;;;;;;;3.23;2.67;;;13.70;99.90;;;;;;8323277;28;20201;-72
2023/08/30 01:48:14;;;;;;;5.40;2.90;;;13.70;99.90;;;;;;8328271;28;20279;-70
2023/08/30 01:52:17;;;;;;;2.90;2.60;;;13.70;99.90;;;;;;8324801;28;20183;-68
2023/08/30 01:56:17;;;;;;;2.30;2.10;;;13.70;99.90;;;;;;8323034;28;20241;-70
2023/08/30 02:00:21;;;;;;;1.87;1.53;;;13.70;99.90;;;;;;8306496;28;20194;-67
2023/08/30 02:04:25;;;;;;;1.60;1.40;;;13.60;99.90;;;;;;8325136;28;20196;-70
2023/08/30 02:08:36;;;;;;;2.67;1.57;;;13.60;99.90;;;;;;8322034;28;20288;-66
2023/08/30 02:12:47;;;;;;;3.87;1.47;;;13.50;99.90;;;;;;8310846;28;20278;-65
2023/08/30 02:16:48;;;;;;;1.70;1.07;;;13.50;99.90;;;;;;8324013;28;20221;-63
2023/08/30 02:20:49;;;;;;;1.57;0.90;;;13.50;99.90;;;;;;8307761;28;20214;-62
2023/08/30 02:24:50;;;;;;;2.10;1.00;;;13.50;99.90;;;;;;8326598;28;20209;-62
2023/08/30 02:28:51;;;;;;;1.40;1.07;;;13.50;99.90;;;;;;8323243;28;20213;-64
2023/08/30 02:32:52;;;;;;;1.43;0.80;;;13.50;99.90;;;;;;8309651;28;20294;-61
2023/08/30 02:36:52;;;;;;;1.33;0.90;;;13.50;99.90;;;;;;8324919;28;20194;-62
2023/08/30 02:40:53;;;;;;;1.27;1.00;;;13.50;99.90;;;;;;8314235;28;20260;-63
2023/08/30 02:44:57;;;;;;;0.80;0.77;;;13.40;99.90;;;;;;8310633;28;20193;-64
2023/08/30 02:48:58;;;;;;;1.43;1.23;;;13.40;99.90;;;;;;8327932;28;20213;-62
2023/08/30 02:52:58;;;;;;;3.20;1.20;;;13.40;99.90;;;;;;8310110;28;20221;-63
2023/08/30 02:57:03;;;;;;;1.17;1.07;;;13.40;99.90;;;;;;8307198;28;20225;-62
2023/08/30 03:01:04;;;;;;;1.37;0.87;;;13.30;99.90;;;;;;8320423;28;20328;-62
2023/08/30 03:05:05;;;;;;;1.33;0.90;;;13.30;99.90;;;;;;8326147;28;20194;-62
2023/08/30 03:09:06;;;;;;;1.30;1.10;;;13.30;99.90;;;;;;8306943;28;20246;-62
2023/08/30 03:13:07;;;;;;;1.40;1.00;;;13.30;99.90;;;;;;8308125;28;20195;-63
2023/08/30 03:17:07;;;;;;;2.93;1.40;;;13.30;99.90;;;;;;8309628;28;20242;-64
2023/08/30 03:21:09;;;;;;;1.83;1.30;;;13.30;99.90;;;;;;8323627;28;20345;-69
2023/08/30 03:25:10;;;;;;;3.20;1.33;;;13.20;99.90;;;;;;8314473;28;20214;-66
2023/08/30 03:29:10;;;;;;;2.37;1.17;;;13.20;99.90;;;;;;8314666;28;20228;-65
2023/08/30 03:33:12;;;;;;;3.03;1.47;;;13.10;99.90;;;;;;8326807;28;20197;-65
2023/08/30 03:37:16;;;;;;;1.30;1.20;;;13.10;99.90;;;;;;8325329;28;20711;-69
2023/08/30 03:41:18;;;;;;;1.50;1.20;;;13.10;99.90;;;;;;8307097;28;20194;-65
2023/08/30 03:45:18;;;;;;;1.33;1.10;;;13.10;99.90;;;;;;8324366;28;20225;-66
2023/08/30 03:49:19;;;;;;;2.27;1.17;;;13.10;99.90;;;;;;8309069;28;20193;-66
2023/08/30 03:53:20;;;;;;;1.77;1.00;;;13.00;99.90;;;;;;8310292;28;20205;-65
2023/08/30 03:57:21;;;;;;;1.63;1.10;;;13.00;99.90;;;;;;8305322;28;20194;-67
2023/08/30 04:01:22;;;;;;;1.43;1.00;;;13.00;99.90;;;;;;8321752;28;20281;-65
2023/08/30 04:05:22;;;;;;;1.57;1.00;;;13.00;99.90;;;;;;8322785;28;20198;-68
2023/08/30 04:09:23;;;;;;;0.90;0.70;;;13.00;99.90;;;;;;8304553;28;20246;-65
2023/08/30 04:13:24;;;;;;;1.40;0.87;;;13.00;99.90;;;;;;8308894;28;20191;-69
2023/08/30 04:17:25;;;;;;;1.77;0.83;;;13.00;99.90;;;;;;8325315;28;20244;-66
2023/08/30 04:21:26;;;;;;;0.70;0.60;;;13.00;99.90;;;;;;8305917;28;20197;-69
2023/08/30 04:25:28;;;;;;;0.57;0.53;;;13.00;99.90;;;;;;8323336;28;20202;-68
2023/08/30 04:29:29;;;;;;;0.73;0.60;;;13.00;99.90;;;;;;8320613;28;20186;-66
2023/08/30 04:33:30;;;;;;;2.00;0.57;;;13.00;99.90;;;;;;8307939;28;20193;-64
2023/08/30 04:37:31;;;;;;;1.60;0.60;;;13.10;99.90;;;;;;8307548;28;20190;-65
2023/08/30 04:41:33;;;;;;;0.80;0.40;;;13.10;99.90;;;;;;8308172;28;20198;-67
2023/08/30 04:45:37;;;;;;;2.67;0.80;;;13.10;99.90;;;;;;8307280;28;20190;-68
2023/08/30 04:49:38;;;;;;;1.63;0.60;;;13.10;99.90;;;;;;8311096;28;20186;-67
2023/08/30 04:53:39;;;;;;;0.80;0.40;;;13.10;99.90;;;;;;8304998;28;20286;-65
2023/08/30 04:57:44;;;;;;;0.60;0.60;;;13.20;99.90;;;;;;8328294;28;20190;-65
2023/08/30 05:01:45;;;;;;;1.37;0.67;;;13.20;99.90;;;;;;8334465;28;20361;-66
2023/08/30 05:05:46;;;;;;;1.00;0.90;;;13.20;99.90;;;;;;8321360;28;20281;-64
2023/08/30 05:09:47;;;;;;;0.80;0.80;;;13.30;99.90;;;;;;8303261;28;20210;-66
2023/08/30 05:13:48;;;;;;;2.27;1.30;;;13.30;99.90;;;;;;8308400;28;20281;-66
2023/08/30 05:17:48;;;;;;;1.70;1.40;;;13.30;99.90;;;;;;8321933;28;20186;-64
2023/08/30 05:21:54;;;;;;;2.70;1.30;;;13.30;99.90;;;;;;8310475;28;20344;-67
2023/08/30 05:25:55;;;;;;;1.60;1.50;;;13.40;99.90;;;;;;8301988;28;20245;-64
2023/08/30 05:29:56;;;;;;;2.67;1.57;;;13.40;99.90;;;;;;8307279;28;20215;-65
2023/08/30 05:33:57;;;;;;;1.70;1.60;;;13.40;99.90;;;;;;8307372;28;20182;-66
2023/08/30 05:37:58;;;;;;;3.03;1.60;;;13.40;99.90;;;;;;8302071;28;20189;-65
2023/08/30 05:41:58;;;;;;;1.93;1.70;;;13.40;99.90;;;;;;8306513;28;20210;-60
2023/08/30 05:46:02;;;;;;;2.80;2.60;;;13.50;99.90;;;;;;8304430;28;20202;-62
2023/08/30 05:50:03;;;;;;;2.40;2.20;;;13.50;99.90;;;;;;8310352;28;20224;-60
2023/08/30 05:54:04;;;;;;;2.20;2.00;;;13.40;99.90;;;;;;8313632;28;20294;-66
2023/08/30 05:58:05;;;;;;;3.90;2.20;;;13.40;99.90;;;;;;8324244;28;20189;-63
2023/08/30 06:02:06;;;;;;;3.77;2.60;;;13.50;99.90;;;;;;8315551;28;20216;-65
2023/08/30 06:06:06;;;;;;;2.40;2.20;;;13.50;99.90;;;;;;8309886;28;20300;-64
2023/08/30 06:10:08;;;;;;;2.10;1.93;;;13.60;99.90;;;;;;8312124;28;21188;-64
2023/08/30 06:14:08;;;;;;;2.60;2.20;;;13.60;99.90;;;;;;8308939;28;20266;-64
2023/08/30 06:18:09;;;;;;;2.83;2.47;;;13.70;99.90;;;;;;8322766;28;20248;-63
2023/08/30 06:22:10;;;;;;;4.30;2.57;;;13.70;99.90;;;;;;8324451;28;20187;-64
2023/08/30 06:26:11;;;;;;;2.33;2.13;;;13.70;99.90;;;;;;8338963;28;20217;-62
2023/08/30 06:30:12;;;;;;;2.53;2.33;;;13.80;99.90;;;;;;8309762;28;20204;-64
2023/08/30 06:34:13;;;;;;;2.20;2.10;;;13.90;99.90;;;;;;8323724;28;20174;-64
2023/08/30 06:38:13;;;;;;;2.00;1.80;;;14.00;99.90;;;;;;8307272;28;20179;-64
2023/08/30 06:42:14;;;;;;;1.70;1.60;;;14.00;99.90;;;;;;8311209;28;20193;-63
2023/08/30 06:46:15;;;;;;;2.70;1.73;;;14.00;99.90;;;;;;8324885;28;20214;-64
2023/08/30 06:50:16;;;;;;;1.80;1.37;;;14.10;99.90;;;;;;8305905;28;20433;-65
2023/08/30 06:54:17;;;;;;;2.13;1.73;;;14.30;99.90;;;;;;8313899;28;20177;-66
2023/08/30 06:58:18;;;;;;;1.70;1.40;;;14.30;99.90;;;;;;8318369;28;20210;-64
2023/08/30 07:02:19;;;;;;;1.47;1.37;;;14.40;99.90;;;;;;8327520;28;20204;-65
2023/08/30 07:06:20;;;;;;;2.40;1.10;;;14.40;99.90;;;;;;8305488;28;20398;-66
2023/08/30 07:10:21;;;;;;;1.17;1.00;;;14.40;99.90;;;;;;8315564;28;20205;-64
2023/08/30 07:14:22;;;;;;;1.30;0.93;;;14.60;99.90;;;;;;8322353;28;20240;-63
2023/08/30 07:18:22;;;;;;;1.40;1.00;;;14.70;99.90;;;;;;8313770;28;20257;-64
2023/08/30 07:22:23;;;;;;;1.03;0.93;;;14.70;99.90;;;;;;8309756;28;20179;-66
2023/08/30 07:26:24;;;;;;;1.20;1.00;;;14.60;99.90;;;;;;8324056;28;20209;-64
2023/08/30 07:30:25;;;;;;;1.30;1.20;;;14.40;99.90;;;;;;8313903;28;20174;-64
2023/08/30 07:34:26;;;;;;;1.53;1.43;;;14.30;99.90;;;;;;8323952;28;20224;-62
2023/08/30 07:38:27;;;;;;;3.43;1.23;;;14.40;99.90;;;;;;8324738;28;20202;-66
2023/08/30 07:42:28;;;;;;;1.43;1.33;;;14.40;99.90;;;;;;8307341;28;20212;-65
2023/08/30 07:46:28;;;;;;;1.67;1.57;;;14.40;99.90;;;;;;8308721;28;20221;-62
2023/08/30 07:50:29;;;;;;;1.97;1.40;;;14.30;99.90;;;;;;8325420;28;20264;-63
2023/08/30 07:54:31;;;;;;;1.90;1.50;;;14.30;99.90;;;;;;8323506;28;20178;-63
2023/08/30 07:58:31;;;;;;;1.43;1.33;;;14.20;99.90;;;;;;8326170;28;20246;-67
2023/08/30 08:02:32;;;;;;;1.90;1.80;;;14.20;99.90;;;;;;8305403;28;20190;-63
2023/08/30 08:06:33;;;;;;;1.60;1.50;;;14.40;99.90;;;;;;8306856;28;20289;-63
2023/08/30 08:10:34;;;;;;;1.77;1.57;;;14.40;99.90;;;;;;8322022;28;20212;-64
2023/08/30 08:14:35;;;;;;;2.30;2.10;;;14.30;99.90;;;;;;8315471;28;20185;-62
2023/08/30 08:18:35;;;;;;;2.77;2.57;;;14.20;99.90;;;;;;8307661;28;20209;-63
2023/08/30 08:22:36;;;;;;;4.60;3.00;;;14.20;99.90;;;;;;8305756;28;20193;-64
2023/08/30 08:26:37;;;;;;;3.27;2.97;;;14.30;99.90;;;;;;8323698;28;20352;-66
2023/08/30 08:30:38;;;;;;;3.80;3.40;;;14.30;99.90;;;;;;8308916;28;20179;-63
2023/08/30 08:34:38;;;;;;;4.83;3.97;;;14.30;99.90;;;;;;8303260;28;20188;-66
2023/08/30 08:38:39;;;;;;;3.83;3.53;;;14.40;99.90;;;;;;8323611;28;20190;-66
2023/08/30 08:42:41;;;;;;;3.90;3.50;;;14.60;99.90;;;;;;8307955;28;20309;-65
2023/08/30 08:46:42;;;;;;;4.57;3.73;;;14.60;99.90;;;;;;8323293;28;20241;-66
2023/08/30 08:50:43;;;;;;;4.37;3.73;;;14.70;99.90;;;;;;8305114;28;20359;-64
2023/08/30 08:54:45;;;;;;;5.57;4.47;;;14.70;99.90;;;;;;8305722;28;20301;-63
2023/08/30 08:58:46;;;;;;;4.73;4.27;;;14.80;99.90;;;;;;8318571;28;20189;-63
2023/08/30 09:02:47;;;;;;;4.33;3.93;;;15.00;99.90;;;;;;8320009;28;20297;-64
2023/08/30 09:06:48;;;;;;;3.83;3.53;;;15.00;99.90;;;;;;8319712;28;20248;-66
2023/08/30 09:10:50;;;;;;;5.27;3.93;;;15.20;99.90;;;;;;8318131;28;20294;-63
2023/08/30 09:14:57;;;;;;;4.03;3.63;;;15.30;99.90;;;;;;8315699;28;20182;-65
2023/08/30 09:18:59;;;;;;;3.77;3.40;;;15.30;99.90;;;;;;8317789;28;20604;-65
2023/08/30 09:23:00;;;;;;;4.30;3.83;;;15.40;99.90;;;;;;8327741;28;20302;-65
2023/08/30 09:27:03;;;;;;;3.60;3.30;;;15.50;99.90;;;;;;8326822;28;20217;-66
2023/08/30 09:31:04;;;;;;;3.37;3.07;;;15.90;99.90;;;;;;8316451;28;20189;-65
2023/08/30 09:35:05;;;;;;;2.93;2.40;;;15.90;99.90;;;;;;8315508;28;20186;-62
2023/08/30 09:39:11;;;;;;;4.47;2.37;;;15.70;99.90;;;;;;8308715;28;20283;-64
2023/08/30 09:43:14;;;;;;;4.20;2.60;;;15.80;99.90;;;;;;8324654;28;20492;-65
2023/08/30 09:47:16;;;;;;;2.50;2.23;;;16.10;99.90;;;;;;8309592;28;20210;-66
2023/08/30 09:51:18;;;;;;;2.53;2.33;;;16.20;99.90;;;;;;8309010;28;20210;-64
2023/08/30 09:55:21;;;;;;;2.47;2.07;;;16.70;99.90;;;;;;8327180;28;20170;-65
2023/08/30 09:59:22;;;;;;;2.13;1.83;;;16.80;99.90;;;;;;8325297;28;20190;-64
2023/08/30 10:03:23;;;;;;;1.83;1.70;;;16.60;99.90;;;;;;8327754;28;20625;-64
2023/08/30 10:07:24;;;;;;;2.23;2.03;;;16.30;99.90;;;;;;8325127;28;20228;-65
2023/08/30 10:11:26;;;;;;;2.50;2.30;;;16.20;99.90;;;;;;8322632;28;20233;-65
2023/08/30 10:15:30;;;;;;;1.87;1.77;;;16.40;99.90;;;;;;8325321;28;20234;-65
2023/08/30 10:19:32;;;;;;;1.83;1.50;;;16.90;99.90;;;;;;8325196;28;20193;-65
2023/08/30 10:23:34;;;;;;;2.13;1.20;;;17.20;99.90;;;;;;8326214;28;20249;-65
2023/08/30 10:27:38;;;;;;;1.83;1.40;;;17.00;99.90;;;;;;8325710;28;20268;-63
2023/08/30 10:31:39;;;;;;;1.60;1.40;;;16.80;99.90;;;;;;8310300;28;20193;-65
2023/08/30 10:35:51;;;;;;;3.13;1.90;;;16.60;99.90;;;;;;8306545;28;20189;-64
2023/08/30 10:39:52;;;;;;;2.33;1.83;;;16.30;99.90;;;;;;8326291;28;20273;-62
2023/08/30 10:43:55;;;;;;;3.40;1.80;;;16.20;99.90;;;;;;8305047;28;20187;-63
2023/08/30 10:47:59;;;;;;;1.50;1.40;;;16.20;99.90;;;;;;8313894;28;20207;-64
2023/08/30 10:52:02;;;;;;;1.53;1.20;;;16.30;99.90;;;;;;8316803;28;20174;-66
2023/08/30 10:56:07;;;;;;;1.97;1.60;;;16.40;99.90;;;;;;8304965;28;20506;-61
2023/08/30 11:00:23;;;;;;;1.97;1.50;;;16.50;99.90;;;;;;8305928;28;20193;-65
2023/08/30 11:04:24;;;;;;;1.70;1.30;;;16.80;99.90;;;;;;8319345;28;20753;-64
2023/08/30 11:08:26;;;;;;;2.77;1.37;;;16.80;99.90;;;;;;8321421;28;20201;-65
2023/08/30 11:12:29;;;;;;;2.23;1.07;;;16.70;99.90;;;;;;8318824;28;20217;-61
2023/08/30 11:16:30;;;;;;;2.30;1.20;;;15.90;99.90;;;;;;8316809;28;20232;-65
2023/08/30 11:20:31;;;;;;;1.80;1.00;;;15.60;99.90;;;;;;8321034;28;20182;-63
2023/08/30 11:24:36;;;;;;;1.50;1.37;;;15.50;99.90;;;;;;8307914;28;20205;-65
2023/08/30 11:28:41;;;;;;;1.87;1.20;;;15.40;99.90;;;;;;8307779;28;20250;-62
2023/08/30 11:32:42;;;;;;;1.33;1.13;;;15.60;99.90;;;;;;8325973;28;20231;-63
2023/08/30 11:36:43;;;;;;;0.97;0.80;;;15.80;99.90;;;;;;8323306;28;20185;-63
2023/08/30 11:40:45;;;;;;;1.40;1.03;;;16.20;99.90;;;;;;8302533;28;20182;-65
2023/08/30 11:44:46;;;;;;;1.83;1.10;;;16.80;99.90;;;;;;8321369;28;20198;-65
2023/08/30 11:48:49;;;;;;;1.93;1.00;;;17.20;99.90;;;;;;8305780;28;20227;-62
2023/08/30 11:52:50;;;;;;;1.50;1.03;;;17.70;99.90;;;;;;8321230;28;20208;-65
2023/08/30 11:56:52;;;;;;;2.37;1.30;;;18.00;99.90;;;;;;8320461;28;20179;-63
2023/08/30 12:00:54;;;;;;;1.17;1.00;;;18.30;99.90;;;;;;8305926;28;20236;-64
2023/08/30 12:04:54;;;;;;;2.03;1.17;;;18.40;99.90;;;;;;8324880;28;20248;-65
2023/08/30 12:08:58;;;;;;;1.17;1.00;;;18.40;99.90;;;;;;8304873;28;20701;-66
2023/08/30 12:12:59;;;;;;;1.93;1.10;;;18.50;1.00;;;;;;8321682;28;20175;-63
2023/08/30 12:17:00;;;;;;;1.80;1.00;;;18.60;99.90;;;;;;8304720;28;20244;-64
2023/08/30 12:21:02;;;;;;;1.20;1.10;;;18.70;99.90;;;;;;8303473;28;20253;-65
2023/08/30 12:25:03;;;;;;;1.13;0.93;;;18.70;99.90;;;;;;8308921;28;20295;-65
2023/08/30 12:29:10;;;;;;;1.30;0.93;;;18.70;99.90;;;;;;8305467;28;20210;-62
2023/08/30 12:33:10;;;;;;;1.67;0.90;;;18.70;99.90;;;;;;8304410;28;20239;-62
2023/08/30 12:37:11;;;;;;;0.80;0.70;;;18.80;99.90;;;;;;8307112;28;20190;-66
2023/08/30 12:41:12;;;;;;;1.43;0.73;;;19.20;99.90;;;;;;8304009;28;20281;-65
2023/08/30 12:45:13;;;;;;;1.73;0.87;;;19.80;94.10;;;;;;8318823;28;20277;-63
2023/08/30 12:49:13;;;;;;;2.13;1.00;;;20.30;52.70;;;;;;8308229;28;20214;-63
2023/08/30 12:53:16;;;;;;;1.40;1.00;;;20.40;4.70;;;;;;8303673;28;20186;-66
2023/08/30 12:57:17;;;;;;;2.20;1.00;;;20.10;1.00;;;;;;8310384;28;20309;-64
2023/08/30 13:01:18;;;;;;;1.67;1.10;;;19.80;1.00;;;;;;8316321;28;20189;-66
2023/08/30 13:05:19;;;;;;;1.23;1.00;;;19.50;6.20;;;;;;8309345;28;20217;-65
2023/08/30 13:09:20;;;;;;;1.77;0.90;;;19.40;1.00;;;;;;8308029;28;20217;-63
2023/08/30 13:13:22;;;;;;;1.13;0.77;;;19.30;9.90;;;;;;8325583;28;20185;-65
2023/08/30 13:17:23;;;;;;;1.30;1.00;;;19.50;1.60;;;;;;8324967;28;20186;-63
2023/08/30 13:21:23;;;;;;;1.10;0.93;;;19.60;1.00;;;;;;8314393;28;20189;-62
2023/08/30 13:25:24;;;;;;;1.13;0.90;;;19.50;1.00;;;;;;8312072;28;20209;-63
2023/08/30 13:29:25;;;;;;;1.30;1.10;;;19.60;24.70;;;;;;8310943;28;20214;-65
2023/08/30 13:33:27;;;;;;;1.43;1.20;;;19.90;29.40;;;;;;8328290;28;20179;-65
2023/08/30 13:37:27;;;;;;;1.30;1.20;;;19.90;15.00;;;;;;8310141;28;20190;-61
2023/08/30 13:41:28;;;;;;;1.50;1.40;;;19.60;25.90;;;;;;8311133;28;20194;-62
2023/08/30 13:45:29;;;;;;;2.70;1.50;;;19.30;44.30;;;;;;8316072;28;20244;-64
2023/08/30 13:49:30;;;;;;;1.40;1.30;;;19.00;99.90;;;;;;8310903;28;20296;-62
2023/08/30 13:53:31;;;;;;;2.10;1.73;;;18.80;99.90;;;;;;8324419;28;20187;-62
2023/08/30 13:57:32;;;;;;;1.53;1.43;;;18.60;99.90;;;;;;8322670;28;20192;-63
2023/08/30 14:01:34;;;;;;;2.13;1.80;;;18.30;99.90;;;;;;8316883;28;20199;-64
2023/08/30 14:05:35;;;;;;;2.20;1.63;;;18.20;99.90;;;;;;8328508;28;20186;-63
2023/08/30 14:09:36;;;;;;;3.83;1.43;;;18.20;99.90;;;;;;8308874;28;20296;-65
2023/08/30 14:13:37;;;;;;;1.63;1.53;;;18.30;99.90;;;;;;8312658;28;20228;-61
2023/08/30 14:17:38;;;;;;;2.40;1.70;;;18.50;99.90;;;;;;8323673;28;20626;-61
2023/08/30 14:21:39;;;;;;;2.40;1.60;;;18.90;99.90;;;;;;8326161;28;20272;-63
2023/08/30 14:25:40;;;;;;;3.13;1.33;;;19.00;99.90;;;;;;8325876;28;20194;-64
2023/08/30 14:29:40;;;;;;;2.13;1.90;;;19.10;99.90;;;;;;8309666;28;20214;-62
2023/08/30 14:33:44;;;;;;;1.60;1.50;;;19.00;96.50;;;;;;8310223;28;20186;-63
2023/08/30 14:37:45;;;;;;;3.67;1.60;;;19.10;97.60;;;;;;8326165;28;20236;-64
2023/08/30 14:41:46;;;;;;;3.23;1.50;;;19.30;90.90;;;;;;8325030;28;20190;-63
2023/08/30 14:45:47;;;;;;;2.67;1.70;;;19.50;63.40;;;;;;8308303;28;20200;-62
2023/08/30 14:49:48;;;;;;;1.97;1.47;;;19.50;41.60;;;;;;8325914;28;20210;-63
2023/08/30 14:53:49;;;;;;;2.87;1.40;;;19.50;29.10;;;;;;8308439;28;20189;-62
2023/08/30 14:57:49;;;;;;;2.27;1.60;;;19.60;26.40;;;;;;8320813;28;20188;-64
2023/08/30 15:01:50;;;;;;;2.77;1.50;;;19.60;16.70;;;;;;8327800;28;20182;-61
2023/08/30 15:05:57;;;;;;;2.10;1.60;;;19.60;8.70;;;;;;8324746;28;20188;-66
2023/08/30 15:09:58;;;;;;;1.90;1.50;;;19.40;11.70;;;;;;8320395;28;20193;-63
2023/08/30 15:13:59;;;;;;;3.00;1.87;;;19.30;22.30;;;;;;8307263;28;20177;-63
2023/08/30 15:18:00;;;;;;;2.60;1.80;;;19.30;29.50;;;;;;8305545;28;20190;-63
2023/08/30 15:22:00;;;;;;;1.90;1.70;;;19.30;14.60;;;;;;8322887;28;20183;-62
2023/08/30 15:26:04;;;;;;;2.27;1.63;;;19.10;15.30;;;;;;8307069;28;20221;-63
2023/08/30 15:30:05;;;;;;;2.07;1.80;;;19.00;27.70;;;;;;8324527;28;20171;-64
2023/08/30 15:34:06;;;;;;;1.87;1.70;;;18.90;42.00;;;;;;8323601;28;20217;-62
2023/08/30 15:38:08;;;;;;;2.57;1.70;;;18.90;73.50;;;;;;8312020;28;20210;-62
2023/08/30 15:42:09;;;;;;;3.53;1.80;;;18.90;66.40;;;;;;8306713;28;20205;-62
2023/08/30 15:46:11;;;;;;;2.27;2.07;;;18.80;76.90;;;;;;8325949;28;20190;-65
2023/08/30 15:50:12;;;;;;;3.13;2.50;;;18.70;86.10;;;;;;8292317;28;20190;-64
2023/08/30 15:54:14;;;;;;;3.03;2.50;;;18.60;99.90;;;;;;8321529;28;20221;-61
2023/08/30 15:58:16;;;;;;;2.73;2.53;;;18.60;99.90;;;;;;8298205;28;20241;-62
2023/08/30 16:02:17;;;;;;;4.20;2.60;;;18.60;95.80;;;;;;8303498;28;20316;-61
2023/08/30 16:06:18;;;;;;;2.90;2.53;;;18.70;97.50;;;;;;8306991;28;20214;-61
2023/08/30 16:10:19;;;;;;;2.63;2.43;;;18.90;67.40;;;;;;8302782;28;20257;-64
2023/08/30 16:14:19;;;;;;;3.27;2.93;;;19.00;43.60;;;;;;8303134;28;20650;-62
2023/08/30 16:18:23;;;;;;;3.20;2.70;;;19.00;38.80;;;;;;8321310;28;20197;-61
2023/08/30 16:22:24;;;;;;;3.63;2.77;;;19.10;45.80;;;;;;8308249;28;20194;-63
2023/08/30 16:26:28;;;;;;;2.93;2.67;;;19.10;33.70;;;;;;8304835;28;20217;-65
2023/08/30 16:30:33;;;;;;;3.23;2.70;;;19.00;31.60;;;;;;8302132;28;20195;-60
2023/08/30 16:34:34;;;;;;;2.87;2.67;;;18.90;36.40;;;;;;8307778;28;20324;-61
2023/08/30 16:38:35;;;;;;;3.53;2.50;;;18.80;39.10;;;;;;8306082;28;20259;-63
2023/08/30 16:42:36;;;;;;;2.90;2.63;;;18.80;45.30;;;;;;8309280;28;20193;-60
2023/08/30 16:46:38;;;;;;;2.77;2.57;;;18.80;54.60;;;;;;8305396;28;20218;-62
2023/08/30 16:50:39;;;;;;;2.90;2.60;;;18.90;75.50;;;;;;8306269;28;20187;-62
2023/08/30 16:54:40;;;;;;;2.43;2.23;;;18.90;82.50;;;;;;8307011;28;20251;-62
2023/08/30 16:58:41;;;;;;;3.00;2.70;;;19.00;79.30;;;;;;8302280;28;20650;-62
2023/08/30 17:02:43;;;;;;;2.77;2.53;;;19.10;74.30;;;;;;8324175;28;20286;-62
2023/08/30 17:06:44;;;;;;;2.97;2.47;;;19.20;67.40;;;;;;8326207;28;20312;-61
2023/08/30 17:10:45;;;;;;;2.67;2.37;;;19.10;70.00;;;;;;8320393;28;20222;-62
2023/08/30 17:14:46;;;;;;;2.57;2.37;;;19.00;85.30;;;;;;8305472;28;20197;-63
2023/08/30 17:18:47;;;;;;;2.63;2.43;;;18.90;97.20;;;;;;8335525;28;20319;-63
2023/08/30 17:22:48;;;;;;;3.03;2.70;;;18.80;99.90;;;;;;8319029;28;20191;-63
2023/08/30 17:26:48;;;;;;;3.20;2.90;;;18.70;99.90;;;;;;8309557;28;20218;-63
2023/08/30 17:30:49;;;;;;;2.53;2.33;;;18.50;99.90;;;;;;8310178;28;20268;-62
2023/08/30 17:34:50;;;;;;;2.40;2.20;;;18.30;99.90;;;;;;8315626;28;20197;-62
2023/08/30 17:38:52;;;;;;;2.70;2.50;;;18.10;99.90;;;;;;8319420;28;20200;-62
2023/08/30 17:42:53;;;;;;;2.53;2.20;;;17.90;99.90;;;;;;8321815;28;20297;-62
2023/08/30 17:46:54;;;;;;;2.43;2.23;;;17.60;99.90;;;;;;8322646;28;20240;-61
2023/08/30 17:50:54;;;;;;;2.83;2.63;;;17.40;1.00;;;;;;8314589;28;20178;-63
2023/08/30 17:54:56;;;;;;;3.40;2.57;;;17.20;1.00;;;;;;8324542;28;20190;-62
2023/08/30 17:58:57;;;;;;;3.20;2.90;;;17.00;1.00;;;;;;8308218;28;20187;-62
2023/08/30 18:02:58;;;;;;;3.80;2.80;;;16.80;99.90;;;;;;8308103;28;20506;-61
2023/08/30 18:07:02;;;;;;;2.80;2.60;;;16.70;99.90;;;;;;8309631;28;20210;-63
2023/08/30 18:11:14;;;;;;;3.13;2.83;;;16.50;99.90;;;;;;8307575;28;20198;-61
2023/08/30 18:15:15;;;;;;;3.27;2.97;;;16.40;1.00;;;;;;8324372;28;20197;-60
2023/08/30 18:19:16;;;;;;;3.53;3.10;;;16.30;1.00;;;;;;8322416;28;20216;-59
2023/08/30 18:23:17;;;;;;;2.93;2.73;;;16.20;91.00;;;;;;8313055;28;20267;-60
2023/08/30 18:27:19;;;;;;;3.20;2.70;;;16.10;99.90;;;;;;8306612;28;20219;-61
2023/08/30 18:31:20;;;;;;;3.30;3.00;;;16.00;99.90;;;;;;8322367;28;20175;-61
2023/08/30 18:35:21;;;;;;;3.60;3.30;;;15.90;1.00;;;;;;8324848;28;20610;-62
2023/08/30 18:39:22;;;;;;;3.40;3.07;;;15.80;1.00;;;;;;8305947;28;20183;-63
2023/08/30 18:43:24;;;;;;;3.50;3.20;;;15.80;83.30;;;;;;8306430;28;20652;-63
2023/08/30 18:47:25;;;;;;;3.47;3.17;;;15.70;99.90;;;;;;8309829;28;20213;-63
2023/08/30 18:51:26;;;;;;;3.60;3.30;;;15.60;99.90;;;;;;8303712;28;20281;-63
2023/08/30 18:55:32;;;;;;;3.50;3.20;;;15.40;99.90;;;;;;8306996;28;20189;-63
2023/08/30 18:59:33;;;;;;;4.20;3.73;;;15.20;1.00;;;;;;8325757;28;20213;-64
2023/08/30 19:03:34;;;;;;;5.60;4.10;;;15.00;99.90;;;;;;8329492;28;20191;-64
2023/08/30 19:07:35;;;;;;;3.93;3.53;;;14.80;1.00;;;;;;8307478;28;20221;-63
2023/08/30 19:11:39;;;;;;;4.60;4.20;;;14.70;99.90;;;;;;8293995;28;20251;-63
2023/08/30 19:15:39;;;;;;;4.60;4.07;;;14.50;99.90;;;;;;8321490;28;20184;-64
2023/08/30 19:19:40;;;;;;;4.50;4.10;;;14.40;99.90;;;;;;8311917;28;20200;-63
2023/08/30 19:23:43;;;;;;;4.83;4.33;;;14.40;37.20;;;;;;8323688;28;20229;-63
2023/08/30 19:27:46;;;;;;;5.37;4.40;;;14.30;95.20;;;;;;8304434;28;20233;-63
2023/08/30 19:31:47;;;;;;;6.53;4.40;;;14.20;99.90;;;;;;8301343;28;20186;-64
2023/08/30 19:35:48;;;;;;;5.10;4.57;;;14.20;1.00;;;;;;8319590;28;20192;-63
2023/08/30 19:39:49;;;;;;;5.00;4.50;;;14.20;1.00;;;;;;8321070;28;20209;-65
2023/08/30 19:43:54;;;;;;;5.90;5.30;;;14.20;1.00;;;;;;8321912;28;20190;-64
2023/08/30 19:47:55;;;;;;;5.73;5.03;;;14.20;49.10;;;;;;8303938;28;20225;-64
2023/08/30 19:51:56;;;;;;;6.03;5.43;;;14.10;99.90;;;;;;8321820;28;20197;-63
2023/08/30 19:55:58;;;;;;;6.93;5.40;;;14.10;99.90;;;;;;8305754;28;20272;-61
2023/08/30 20:00:01;;;;;;;7.00;5.17;;;14.10;99.90;;;;;;8323668;28;20273;-61
2023/08/30 20:04:03;;;;;;;5.93;5.43;;;14.10;99.90;;;;;;8310991;28;20273;-63
2023/08/30 20:08:06;;;;;;;6.77;6.13;;;14.10;99.90;;;;;;8310663;28;20218;-63
2023/08/30 20:12:07;;;;;;;7.27;6.37;;;14.10;99.90;;;;;;8305606;28;20233;-61
2023/08/30 20:16:08;;;;;;;7.00;6.30;;;14.10;99.90;;;;;;8307550;28;20188;-61
2023/08/30 20:20:11;;;;;;;7.03;6.33;;;14.10;99.90;;;;;;8321434;28;20183;-60
2023/08/30 20:24:18;;;;;;;7.30;6.60;;;14.10;99.90;;;;;;8311759;28;20221;-62
2023/08/30 20:28:19;;;;;;;7.70;6.90;;;14.10;99.90;;;;;;8304154;28;20411;-61
2023/08/30 20:32:21;;;;;;;7.63;6.63;;;14.10;99.90;;;;;;8319770;28;20208;-62
2023/08/30 20:36:22;;;;;;;6.73;6.13;;;14.10;99.90;;;;;;8308633;28;20205;-62
2023/08/30 20:40:24;;;;;;;7.10;6.33;;;14.20;99.90;;;;;;8312003;28;20186;-61
2023/08/30 20:44:25;;;;;;;6.47;5.90;;;14.20;99.90;;;;;;8325871;28;20198;-61
2023/08/30 20:48:26;;;;;;;6.87;5.93;;;14.20;99.90;;;;;;8308130;28;20210;-61
2023/08/30 20:52:27;;;;;;;6.17;5.57;;;14.20;99.90;;;;;;8305885;28;20647;-62
2023/08/30 20:56:29;;;;;;;5.50;5.00;;;14.20;99.90;;;;;;8309767;28;20190;-61
2023/08/30 21:00:30;;;;;;;6.13;5.53;;;14.20;99.90;;;;;;8320676;28;20214;-62